Time;durP1;ratioP1;P1;durP2;ratioP2;P2;SDS_P1;SDS_P2;PMS_P1;PMS_P2;Temp;Humidity;BMP_temperature;BMP_pressure;BME280_temperature;BME280_humidity;BME280_pressure;Samples;Min_cycle;Max_cycle;Signal;HPM_P1;HPM_P2
2020/12/19 00:02:28;;;;;;;22.82;12.53;;;;;;;4.52;68.38;101579.16;1780110;79;21459;-52
2020/12/19 00:04:55;;;;;;;23.18;12.55;;;;;;;4.52;68.37;101583.20;1780120;80;21053;-51
2020/12/19 00:07:24;;;;;;;22.30;12.65;;;;;;;4.53;68.38;101583.51;1780111;80;21020;-50
2020/12/19 00:09:51;;;;;;;21.95;13.05;;;;;;;4.56;68.46;101587.66;1779982;80;21163;-51
2020/12/19 00:12:21;;;;;;;22.48;12.63;;;;;;;4.59;68.41;101590.81;1780177;80;21537;-49
2020/12/19 00:14:49;;;;;;;22.67;11.65;;;;;;;4.59;68.36;101592.16;1780049;79;21487;-49
2020/12/19 00:17:17;;;;;;;22.25;12.30;;;;;;;4.59;68.36;101589.45;1779897;80;21464;-49
2020/12/19 00:19:45;;;;;;;24.40;13.00;;;;;;;4.58;68.25;101585.10;1780111;80;21005;-50
2020/12/19 00:22:15;;;;;;;21.42;12.23;;;;;;;4.53;68.27;101589.42;1779871;80;20993;-50
2020/12/19 00:24:42;;;;;;;22.55;12.80;;;;;;;4.46;68.50;101595.25;1780119;80;21208;-49
2020/12/19 00:27:11;;;;;;;22.82;12.73;;;;;;;4.45;68.59;101590.38;1779981;80;20906;-49
2020/12/19 00:29:39;;;;;;;22.90;13.10;;;;;;;4.46;68.69;101594.77;1776815;80;21468;-49
2020/12/19 00:32:08;;;;;;;23.98;13.18;;;;;;;4.47;68.74;101595.08;1775108;80;21088;-49
2020/12/19 00:34:38;;;;;;;23.25;12.15;;;;;;;4.51;68.75;101595.50;1771390;80;21177;-50
2020/12/19 00:37:06;;;;;;;24.77;13.62;;;;;;;4.52;68.65;101587.75;1774986;80;21203;-50
2020/12/19 00:39:33;;;;;;;22.25;12.40;;;;;;;4.55;68.60;101586.83;1744784;80;21009;-50
2020/12/19 00:42:02;;;;;;;22.73;12.78;;;;;;;4.56;68.54;101591.70;1818859;78;21017;-50
2020/12/19 00:44:29;;;;;;;23.15;13.65;;;;;;;4.56;68.53;101591.70;1798576;78;21486;-51
2020/12/19 00:46:57;;;;;;;20.48;12.47;;;;;;;4.54;68.54;101594.60;1798542;78;21574;-52
2020/12/19 00:49:25;;;;;;;23.20;13.05;;;;;;;4.54;68.53;101591.91;1818760;78;21572;-50
2020/12/19 00:51:53;;;;;;;24.10;12.98;;;;;;;4.56;68.52;101591.70;1818818;78;21575;-51
2020/12/19 00:54:21;;;;;;;27.13;14.07;;;;;;;4.58;68.45;101590.49;1818934;78;20929;-51
2020/12/19 00:56:51;;;;;;;25.20;13.45;;;;;;;4.60;68.44;101591.64;1818917;78;20918;-51
2020/12/19 00:59:19;;;;;;;25.15;13.65;;;;;;;4.58;68.38;101595.05;1773953;78;20933;-51
2020/12/19 01:01:47;;;;;;;19.92;11.73;;;;;;;4.57;68.43;101598.27;1818848;78;21441;-51
2020/12/19 01:04:15;;;;;;;24.27;12.78;;;;;;;4.57;68.49;101597.44;1818826;78;20941;-52
2020/12/19 01:06:43;;;;;;;23.00;12.80;;;;;;;4.57;68.47;101597.44;1818801;78;20966;-52
2020/12/19 01:09:12;;;;;;;20.77;12.60;;;;;;;4.56;68.47;101594.39;1818753;78;21056;-51
2020/12/19 01:11:40;;;;;;;25.45;13.03;;;;;;;4.52;68.54;101589.10;1798525;78;20906;-48
2020/12/19 01:14:08;;;;;;;22.22;13.20;;;;;;;4.54;68.56;101590.56;1819073;78;22342;-51
2020/12/19 01:16:38;;;;;;;25.15;13.83;;;;;;;4.57;68.58;101592.05;1818844;78;20989;-50
2020/12/19 01:19:06;;;;;;;28.23;14.87;;;;;;;4.60;68.56;101588.94;1798864;78;20989;-50
2020/12/19 01:21:33;;;;;;;25.02;13.55;;;;;;;4.62;68.55;101584.20;1818942;78;20985;-49
2020/12/19 01:24:01;;;;;;;21.75;12.82;;;;;;;4.60;68.58;101588.42;1818862;78;21047;-51
2020/12/19 01:26:29;;;;;;;24.25;13.45;;;;;;;4.60;68.64;101584.38;1818929;78;21143;-51
2020/12/19 01:28:59;;;;;;;24.07;12.05;;;;;;;4.59;68.67;101582.72;1817403;78;21048;-50
2020/12/19 01:31:28;;;;;;;24.23;13.32;;;;;;;4.58;68.67;101581.06;1813229;79;20910;-49
2020/12/19 01:33:56;;;;;;;27.50;13.60;;;;;;;4.57;68.71;101587.48;1813172;79;21511;-50
2020/12/19 01:36:24;;;;;;;24.07;12.93;;;;;;;4.57;68.70;101588.00;1813155;79;20946;-51
2020/12/19 01:38:52;;;;;;;26.37;14.10;;;;;;;4.57;68.78;101583.44;1813062;79;21388;-52
2020/12/19 01:41:22;;;;;;;27.35;13.95;;;;;;;4.59;68.78;101586.77;1813076;79;20998;-49
2020/12/19 01:43:55;;;;;;;23.60;14.05;;;;;;;4.60;68.77;101587.08;1813120;77;20915;-50
2020/12/19 01:46:54;;;;;;;27.45;13.53;;;;;;;4.61;68.79;101593.30;1801944;79;20993;-51
2020/12/19 01:49:26;;;;;;;24.43;13.00;;;;;;;4.64;68.74;101592.40;1813012;79;21587;-51
2020/12/19 01:52:00;;;;;;;24.30;12.78;;;;;;;4.64;68.62;101595.09;1813149;79;22013;-49
2020/12/19 01:54:29;;;;;;;26.57;13.47;;;;;;;4.64;68.66;101592.40;1813241;78;20929;-49
2020/12/19 01:56:58;;;;;;;25.77;13.83;;;;;;;4.64;68.66;101592.40;1813138;79;21747;-48
2020/12/19 01:59:28;;;;;;;24.50;13.48;;;;;;;4.62;68.62;101594.47;1813109;79;20918;-50
2020/12/19 02:01:58;;;;;;;23.85;12.80;;;;;;;4.61;68.69;101597.34;1813044;79;21104;-48
2020/12/19 02:04:26;;;;;;;25.77;13.45;;;;;;;4.62;68.69;101596.34;1801913;79;21346;-49
2020/12/19 02:06:57;;;;;;;23.25;13.45;;;;;;;4.64;68.70;101602.36;1776256;79;20977;-50
2020/12/19 02:09:27;;;;;;;24.65;12.98;;;;;;;4.63;68.78;101599.34;1813106;78;21033;-49
2020/12/19 02:11:55;;;;;;;23.92;13.58;;;;;;;4.64;68.83;101602.36;1812970;79;21005;-52
2020/12/19 02:14:23;;;;;;;25.60;14.53;;;;;;;4.64;68.78;101595.09;1813111;77;21156;-50
2020/12/19 02:17:02;;;;;;;23.52;12.93;;;;;;;4.65;68.79;101596.76;1812989;77;21193;-50
2020/12/19 02:19:31;;;;;;;23.87;13.10;;;;;;;4.65;68.75;101595.41;1813179;78;20930;-50
2020/12/19 02:22:00;;;;;;;28.85;13.55;;;;;;;4.65;68.77;101598.63;1813086;79;21451;-48
2020/12/19 02:24:27;;;;;;;24.30;14.03;;;;;;;4.64;68.77;101591.57;1813145;79;21037;-50
2020/12/19 02:26:57;;;;;;;25.77;14.35;;;;;;;4.64;68.78;101598.31;1813104;79;21114;-50
2020/12/19 02:29:28;;;;;;;24.80;13.83;;;;;;;4.63;68.87;101598.00;1815880;78;21192;-51
2020/12/19 02:31:58;;;;;;;25.60;14.28;;;;;;;4.61;68.95;101590.12;1824878;77;21558;-49
2020/12/19 02:34:25;;;;;;;25.97;13.45;;;;;;;4.64;68.96;101594.27;1824967;78;21008;-49
2020/12/19 02:36:54;;;;;;;25.92;13.80;;;;;;;4.65;68.95;101592.72;1824857;78;21005;-49
2020/12/19 02:39:22;;;;;;;26.12;14.55;;;;;;;4.68;68.94;101595.03;1825068;78;21590;-52
2020/12/19 02:41:50;;;;;;;26.33;13.80;;;;;;;4.68;68.86;101595.03;1824776;78;21690;-50
2020/12/19 02:44:20;;;;;;;25.82;14.35;;;;;;;4.70;68.88;101588.09;1824893;78;21503;-50
2020/12/19 02:46:48;;;;;;;24.30;13.95;;;;;;;4.70;68.81;101596.17;1824889;78;20906;-50
2020/12/19 02:49:17;;;;;;;24.47;13.35;;;;;;;4.67;68.82;101593.37;1824736;78;20936;-49
2020/12/19 02:51:44;;;;;;;24.80;14.33;;;;;;;4.71;68.84;101599.70;1824755;78;21510;-50
2020/12/19 02:54:12;;;;;;;28.52;14.53;;;;;;;4.71;68.86;101605.92;1824756;78;22021;-51
2020/12/19 02:56:40;;;;;;;24.57;14.28;;;;;;;4.74;68.87;101608.23;1824902;78;21064;-50
2020/12/19 02:59:08;;;;;;;24.72;13.50;;;;;;;4.76;68.80;101605.34;1824678;78;20867;-49
2020/12/19 03:01:37;;;;;;;24.02;13.80;;;;;;;4.78;68.72;101610.04;1824931;78;20914;-49
2020/12/19 03:04:04;;;;;;;23.95;13.95;;;;;;;4.77;68.69;101611.08;1824790;78;21570;-49
2020/12/19 03:06:34;;;;;;;26.05;13.88;;;;;;;4.78;68.63;101611.39;1824933;78;22207;-49
2020/12/19 03:09:03;;;;;;;24.10;13.72;;;;;;;4.76;68.65;101609.37;1824522;78;21362;-51
2020/12/19 03:11:31;;;;;;;27.07;14.40;;;;;;;4.76;68.64;101609.37;1823328;78;20997;-50
2020/12/19 03:13:59;;;;;;;22.90;13.40;;;;;;;4.76;68.65;101609.37;1824625;78;21491;-52
2020/12/19 03:16:26;;;;;;;25.02;14.10;;;;;;;4.76;68.63;101610.73;1824869;78;20862;-50
2020/12/19 03:18:54;;;;;;;24.05;13.93;;;;;;;4.78;68.62;101608.69;1824656;78;21257;-53
2020/12/19 03:21:23;;;;;;;27.02;14.68;;;;;;;4.78;68.61;101606.83;1824615;78;21545;-53
2020/12/19 03:23:51;;;;;;;23.12;12.80;;;;;;;4.78;68.55;101602.78;1824603;77;21536;-53
2020/12/19 03:26:19;;;;;;;26.40;14.47;;;;;;;4.78;68.53;101600.60;1824745;78;20910;-50
2020/12/19 03:28:48;;;;;;;22.55;13.08;;;;;;;4.77;68.54;101601.12;1824735;78;21129;-50
2020/12/19 03:31:16;;;;;;;22.13;12.10;;;;;;;4.78;68.50;101604.13;1814044;78;22406;-50
2020/12/19 03:33:43;;;;;;;22.52;13.28;;;;;;;4.78;68.45;101608.17;1812550;77;20978;-50
2020/12/19 03:36:12;;;;;;;24.60;14.03;;;;;;;4.77;68.44;101607.03;1812953;78;21551;-50
2020/12/19 03:38:42;;;;;;;23.02;13.32;;;;;;;4.75;68.50;101603.67;1812833;79;21582;-49
2020/12/19 03:41:10;;;;;;;24.27;14.63;;;;;;;4.75;68.51;101604.51;1812761;79;21116;-49
2020/12/19 03:43:38;;;;;;;24.70;13.68;;;;;;;4.75;68.56;101603.67;1812709;77;21511;-50
2020/12/19 03:46:06;;;;;;;22.93;12.85;;;;;;;4.74;68.59;101600.67;1813102;79;21527;-51
2020/12/19 03:48:34;;;;;;;25.82;13.35;;;;;;;4.77;68.58;101601.12;1812216;77;21191;-54
2020/12/19 03:51:01;;;;;;;24.47;13.32;;;;;;;4.76;68.53;101595.38;1812857;79;21475;-50
2020/12/19 03:53:30;;;;;;;24.95;12.75;;;;;;;4.74;68.61;101600.67;1812889;78;21051;-54
2020/12/19 03:55:58;;;;;;;25.05;13.30;;;;;;;4.74;68.57;101585.32;1812887;77;21424;-54
2020/12/19 03:58:27;;;;;;;23.95;13.08;;;;;;;4.74;68.55;101589.88;1813085;77;20902;-51
2020/12/19 04:00:55;;;;;;;23.65;13.13;;;;;;;4.71;68.53;101594.31;1812746;79;21001;-51
2020/12/19 04:03:23;;;;;;;25.65;14.13;;;;;;;4.68;68.59;101593.69;1812926;77;21037;-54
2020/12/19 04:05:51;;;;;;;23.98;13.75;;;;;;;4.65;68.71;101590.54;1812804;79;20878;-54
2020/12/19 04:08:23;;;;;;;24.75;14.07;;;;;;;4.63;68.82;101593.44;1813065;78;22210;-55
2020/12/19 04:10:51;;;;;;;23.42;13.13;;;;;;;4.62;68.87;101594.47;1812649;79;21028;-52
2020/12/19 04:13:19;;;;;;;23.00;13.18;;;;;;;4.61;68.89;101590.12;1812997;78;20910;-54
2020/12/19 04:15:47;;;;;;;24.47;13.60;;;;;;;4.59;68.93;101586.77;1812672;77;20997;-54
2020/12/19 04:18:15;;;;;;;24.63;13.48;;;;;;;4.59;68.96;101580.55;1812929;78;20989;-53
2020/12/19 04:20:42;;;;;;;25.45;13.90;;;;;;;4.57;68.96;101583.44;1813192;77;22186;-51
2020/12/19 04:23:10;;;;;;;25.97;14.65;;;;;;;4.56;69.01;101597.95;1813022;77;21496;-52
2020/12/19 04:25:38;;;;;;;25.85;14.65;;;;;;;4.59;69.06;101594.85;1801454;79;20937;-51
2020/12/19 04:28:06;;;;;;;24.92;14.50;;;;;;;4.61;69.07;101604.94;1812820;79;20993;-51
2020/12/19 04:30:35;;;;;;;22.15;13.00;;;;;;;4.63;69.05;101601.52;1812813;78;21061;-51
2020/12/19 04:33:02;;;;;;;24.00;13.25;;;;;;;4.65;69.04;101605.36;1812763;79;21567;-53
2020/12/19 04:35:30;;;;;;;27.80;14.20;;;;;;;4.66;69.00;101609.23;1812913;79;20922;-53
2020/12/19 04:37:58;;;;;;;25.52;13.90;;;;;;;4.64;68.99;101596.45;1813116;79;20917;-53
2020/12/19 04:40:26;;;;;;;22.70;13.05;;;;;;;4.64;68.96;101603.19;1812801;79;22084;-52
2020/12/19 04:42:56;;;;;;;28.57;14.85;;;;;;;4.64;68.99;101598.31;1812998;79;21029;-49
2020/12/19 04:45:24;;;;;;;22.15;13.40;;;;;;;4.65;68.98;101602.67;1776087;79;21420;-52
2020/12/19 04:47:51;;;;;;;26.73;15.25;;;;;;;4.66;68.92;101599.80;1813110;78;21480;-51
2020/12/19 04:50:19;;;;;;;22.70;13.15;;;;;;;4.66;68.96;101605.19;1812847;79;21072;-56
2020/12/19 04:52:47;;;;;;;24.57;13.45;;;;;;;4.64;69.03;101608.58;1801958;79;21480;-50
2020/12/19 04:55:15;;;;;;;23.40;12.90;;;;;;;4.65;69.07;101614.80;1812652;78;21036;-52
2020/12/19 04:57:43;;;;;;;23.15;12.95;;;;;;;4.64;69.07;101619.36;1813090;78;21365;-50
2020/12/19 05:00:11;;;;;;;22.22;12.95;;;;;;;4.67;69.09;101608.72;1813156;77;20925;-51
2020/12/19 05:02:39;;;;;;;22.27;12.68;;;;;;;4.69;69.02;101610.17;1776005;79;20929;-54
2020/12/19 05:05:07;;;;;;;22.85;13.50;;;;;;;4.69;68.93;101609.34;1812841;79;20937;-52
2020/12/19 05:07:37;;;;;;;21.55;12.73;;;;;;;4.67;68.99;101610.89;1812722;78;21021;-53
2020/12/19 05:10:04;;;;;;;24.63;14.07;;;;;;;4.70;68.99;101616.39;1801703;79;21499;-53
2020/12/19 05:12:34;;;;;;;23.10;13.43;;;;;;;4.74;68.97;101619.54;1813118;79;21654;-50
2020/12/19 05:15:07;;;;;;;22.45;13.08;;;;;;;4.76;68.96;101618.82;1765318;79;21147;-51
2020/12/19 05:17:36;;;;;;;21.20;12.98;;;;;;;4.79;68.88;101616.58;1813026;79;20965;-50
2020/12/19 05:20:05;;;;;;;20.97;12.60;;;;;;;4.77;68.80;101618.64;1813083;79;21040;-51
2020/12/19 05:22:34;;;;;;;22.98;13.15;;;;;;;4.76;68.79;101614.77;1801689;79;21389;-53
2020/12/19 05:25:04;;;;;;;22.17;12.60;;;;;;;4.76;68.83;101617.47;1812764;78;21016;-54
2020/12/19 05:27:32;;;;;;;23.38;13.03;;;;;;;4.75;68.84;101622.03;1801909;79;21590;-53
2020/12/19 05:30:00;;;;;;;22.77;12.40;;;;;;;4.76;68.84;101619.65;1814047;78;21061;-53
2020/12/19 05:32:29;;;;;;;22.90;13.65;;;;;;;4.78;68.81;101628.91;1824854;78;21468;-53
2020/12/19 05:34:56;;;;;;;25.45;14.13;;;;;;;4.78;68.88;101630.27;1824925;78;21397;-52
2020/12/19 05:37:24;;;;;;;26.87;13.78;;;;;;;4.79;68.89;101626.02;1824668;78;21134;-52
2020/12/19 05:39:52;;;;;;;23.57;14.05;;;;;;;4.79;68.96;101626.53;1824773;78;21480;-52
2020/12/19 05:42:24;;;;;;;25.57;14.07;;;;;;;4.80;68.95;101630.37;1824299;78;20949;-52
2020/12/19 05:44:52;;;;;;;23.75;13.58;;;;;;;4.80;68.96;101628.19;1824543;78;20910;-55
2020/12/19 05:47:21;;;;;;;26.30;13.50;;;;;;;4.79;69.00;101623.31;1824841;77;21336;-53
2020/12/19 05:49:49;;;;;;;22.70;12.78;;;;;;;4.80;69.01;101626.84;1805803;78;20997;-52
2020/12/19 05:52:17;;;;;;;29.05;15.23;;;;;;;4.79;68.97;101631.92;1824166;78;20996;-51
2020/12/19 05:54:45;;;;;;;25.45;14.50;;;;;;;4.78;69.00;101633.79;1824613;78;20937;-54
2020/12/19 05:57:13;;;;;;;28.98;15.58;;;;;;;4.79;69.04;101627.36;1824414;78;21154;-53
2020/12/19 05:59:41;;;;;;;25.95;14.50;;;;;;;4.80;69.03;101637.63;1824803;78;21413;-54
2020/12/19 06:02:09;;;;;;;27.55;15.08;;;;;;;4.81;69.08;101644.68;1824783;78;20981;-55
2020/12/19 06:04:38;;;;;;;26.95;14.68;;;;;;;4.81;69.11;101644.68;1824757;78;20965;-53
2020/12/19 06:07:05;;;;;;;29.98;14.60;;;;;;;4.82;69.07;101647.20;1806266;78;21129;-54
2020/12/19 06:09:33;;;;;;;28.27;14.50;;;;;;;4.85;69.03;101658.09;1806269;78;21074;-57
2020/12/19 06:12:08;;;;;;;27.85;13.50;;;;;;;4.85;69.05;101654.05;1824798;78;22225;-54
2020/12/19 06:14:40;;;;;;;30.97;15.58;;;;;;;4.84;69.03;101656.44;1807200;78;21443;-55
2020/12/19 06:17:35;;;;;;;29.18;15.30;;;;;;;4.83;69.08;101665.05;1824722;77;20941;-54
2020/12/19 06:20:03;;;;;;;33.10;16.10;;;;;;;4.85;69.12;101666.19;1824882;78;21159;-56
2020/12/19 06:22:32;;;;;;;34.20;17.07;;;;;;;4.85;69.16;101670.23;1780565;78;21579;-53
2020/12/19 06:25:00;;;;;;;29.87;15.75;;;;;;;4.85;69.24;101664.84;1824545;78;21371;-63
2020/12/19 06:27:40;;;;;;;28.42;14.73;;;;;;;4.86;69.16;101667.33;1824864;78;21510;-54
2020/12/19 06:30:30;;;;;;;28.95;14.15;;;;;;;4.84;69.20;101673.97;1823910;78;21111;-53
2020/12/19 06:33:11;;;;;;;29.07;14.80;;;;;;;4.83;69.20;101672.30;1812880;78;20922;-52
2020/12/19 06:35:46;;;;;;;31.23;15.25;;;;;;;4.78;69.18;101674.23;1812984;78;20898;-52
2020/12/19 06:38:43;;;;;;;28.45;14.55;;;;;;;4.76;69.26;101689.75;1811495;78;23610;-55
2020/12/19 06:41:32;;;;;;;30.43;16.05;;;;;;;4.72;69.31;101685.80;1812822;77;21076;-54
2020/12/19 06:44:09;;;;;;;31.60;15.63;;;;;;;4.74;69.32;101687.78;1802839;79;21034;-51
2020/12/19 06:46:37;;;;;;;29.85;15.38;;;;;;;4.72;69.35;101688.50;1813190;79;21025;-54
2020/12/19 06:49:30;;;;;;;30.23;15.68;;;;;;;4.71;69.44;101686.80;1812836;79;21104;-52
2020/12/19 06:52:08;;;;;;;26.93;14.18;;;;;;;4.71;69.42;101685.97;1812995;79;21366;-51
2020/12/19 06:54:45;;;;;;;32.33;16.40;;;;;;;4.71;69.41;101697.59;1812760;78;21148;-53
2020/12/19 06:57:25;;;;;;;28.90;14.45;;;;;;;4.69;69.43;101699.66;1812885;78;21201;-53
2020/12/19 06:59:56;;;;;;;32.05;15.60;;;;;;;4.71;69.42;101700.28;1812893;78;21036;-54
2020/12/19 07:02:25;;;;;;;29.42;14.75;;;;;;;4.72;69.35;101693.06;1802003;79;21546;-51
2020/12/19 07:04:53;;;;;;;29.32;15.18;;;;;;;4.71;69.34;101693.55;1812805;79;21355;-51
2020/12/19 07:07:26;;;;;;;28.92;16.35;;;;;;;4.74;69.33;101703.12;1813088;79;21662;-52
2020/12/19 07:10:01;;;;;;;29.35;15.08;;;;;;;4.76;69.20;101692.97;1801593;79;21083;-54
2020/12/19 07:12:38;;;;;;;28.05;14.53;;;;;;;4.74;69.40;101704.47;1813137;79;21044;-51
2020/12/19 07:15:09;;;;;;;25.65;13.72;;;;;;;4.74;69.40;101704.47;1813017;79;21551;-52
2020/12/19 07:17:47;;;;;;;27.00;14.43;;;;;;;4.73;69.29;101706.34;1813000;79;22290;-51
2020/12/19 07:20:24;;;;;;;24.85;13.38;;;;;;;4.75;69.30;101703.44;1813050;78;21531;-52
2020/12/19 07:22:52;;;;;;;25.32;13.83;;;;;;;4.80;69.31;101711.78;1776226;79;20961;-56
2020/12/19 07:25:21;;;;;;;24.27;13.70;;;;;;;4.83;69.20;101708.70;1812924;79;21151;-55
2020/12/19 07:27:49;;;;;;;26.05;13.70;;;;;;;4.86;69.14;101714.53;1812782;79;21048;-54
2020/12/19 07:30:18;;;;;;;23.67;14.00;;;;;;;4.90;69.09;101717.16;1813042;79;21422;-55
2020/12/19 07:32:46;;;;;;;23.83;13.45;;;;;;;4.94;69.04;101717.09;1803264;78;21120;-52
2020/12/19 07:35:14;;;;;;;22.93;12.88;;;;;;;4.98;68.98;101718.91;1824122;78;21099;-53
2020/12/19 07:37:42;;;;;;;25.50;13.93;;;;;;;4.99;68.82;101720.56;1824128;78;20921;-53
2020/12/19 07:40:10;;;;;;;24.70;13.53;;;;;;;4.99;68.83;101717.03;1823909;77;21071;-56
2020/12/19 07:42:38;;;;;;;24.75;13.72;;;;;;;5.01;68.79;101722.53;1824012;78;22762;-57
2020/12/19 07:45:09;;;;;;;26.35;13.70;;;;;;;4.99;68.76;101705.73;1823997;78;21121;-55
2020/12/19 07:47:39;;;;;;;23.00;13.60;;;;;;;5.03;68.74;101712.92;1778574;78;21079;-57
2020/12/19 07:50:07;;;;;;;22.65;13.90;;;;;;;5.05;68.77;101710.33;1824150;78;21550;-52
2020/12/19 07:52:35;;;;;;;26.10;13.80;;;;;;;5.10;68.71;101717.33;1824364;78;21139;-51
2020/12/19 07:55:04;;;;;;;22.27;12.65;;;;;;;5.15;68.60;101715.39;1803944;78;21359;-52
2020/12/19 07:57:33;;;;;;;21.85;12.82;;;;;;;5.18;68.61;101716.36;1824334;78;20917;-53
2020/12/19 08:00:03;;;;;;;24.52;13.90;;;;;;;5.21;68.45;101716.78;1824189;78;20893;-52
2020/12/19 08:02:38;;;;;;;24.87;13.85;;;;;;;5.23;68.44;101710.38;1824436;78;21583;-55
2020/12/19 08:05:06;;;;;;;22.77;13.28;;;;;;;5.25;68.42;101713.70;1824654;78;20960;-54
2020/12/19 08:07:34;;;;;;;21.82;12.90;;;;;;;5.26;68.21;101718.06;1803749;78;21198;-52
2020/12/19 08:10:07;;;;;;;22.75;12.28;;;;;;;5.23;68.21;101715.78;1824166;78;20921;-54
2020/12/19 08:12:35;;;;;;;24.52;13.38;;;;;;;5.22;68.27;101716.30;1824443;78;21550;-54
2020/12/19 08:15:08;;;;;;;21.82;12.50;;;;;;;5.21;68.18;101720.00;1824209;78;21591;-52
2020/12/19 08:17:51;;;;;;;24.80;13.10;;;;;;;5.21;68.25;101720.83;1824320;77;20972;-52
2020/12/19 08:20:23;;;;;;;21.70;13.35;;;;;;;5.24;68.22;101716.92;1824100;77;21370;-54
2020/12/19 08:22:51;;;;;;;23.40;13.18;;;;;;;5.27;68.23;101716.54;1824014;77;21083;-52
2020/12/19 08:25:18;;;;;;;22.35;13.38;;;;;;;5.30;68.33;101710.73;1824178;78;21016;-52
2020/12/19 08:27:47;;;;;;;21.95;12.82;;;;;;;5.35;68.20;101710.14;1823983;78;21220;-53
2020/12/19 08:30:32;;;;;;;22.48;14.07;;;;;;;5.38;68.24;101712.45;1824246;78;20988;-57
2020/12/19 08:33:04;;;;;;;20.85;12.35;;;;;;;5.41;68.11;101717.44;1813686;78;21035;-53
2020/12/19 08:35:36;;;;;;;21.10;11.95;;;;;;;5.44;68.12;101716.55;1812180;78;21179;-55
2020/12/19 08:38:12;;;;;;;19.60;12.30;;;;;;;5.44;68.00;101715.19;1803551;79;21103;-53
2020/12/19 08:40:42;;;;;;;20.43;11.70;;;;;;;5.45;67.94;101708.75;1796051;79;21214;-50
2020/12/19 08:43:12;;;;;;;19.77;12.47;;;;;;;5.45;67.95;101707.41;1790385;79;21547;-51
2020/12/19 08:45:47;;;;;;;23.25;13.35;;;;;;;5.51;67.93;101707.64;1801402;79;21547;-50
2020/12/19 08:48:21;;;;;;;21.50;13.08;;;;;;;5.50;67.95;101705.47;1791907;78;21685;-50
2020/12/19 08:50:52;;;;;;;19.92;12.50;;;;;;;5.55;67.95;101706.22;1792699;79;21115;-50
2020/12/19 08:53:24;;;;;;;22.40;13.15;;;;;;;5.58;67.84;101713.41;1791417;79;21052;-55
2020/12/19 08:55:53;;;;;;;24.70;13.05;;;;;;;5.58;67.93;101711.23;1789885;79;21052;-55
2020/12/19 08:58:31;;;;;;;20.85;12.23;;;;;;;5.60;67.84;101704.59;1735334;81;21433;-57
2020/12/19 09:01:04;;;;;;;19.57;11.88;;;;;;;5.62;67.78;101702.51;1728425;81;21139;-58
2020/12/19 09:03:35;;;;;;;18.80;11.28;;;;;;;5.62;67.53;101702.51;1706670;83;20953;-57
2020/12/19 09:06:09;;;;;;;18.32;11.18;;;;;;;5.61;67.50;101703.55;1722134;83;21044;-52
2020/12/19 09:08:47;;;;;;;22.37;11.90;;;;;;;5.62;67.53;101697.63;1748414;81;21147;-55
2020/12/19 09:11:31;;;;;;;22.02;13.20;;;;;;;5.64;67.60;101700.98;1734883;81;21370;-56
2020/12/19 09:14:11;;;;;;;23.32;13.53;;;;;;;5.64;67.61;101697.77;1721332;83;21024;-52
2020/12/19 09:16:51;;;;;;;21.10;13.03;;;;;;;5.66;67.66;101697.03;1735041;81;21131;-54
2020/12/19 09:19:19;;;;;;;22.37;13.95;;;;;;;5.67;67.51;101694.64;1721936;83;21198;-54
2020/12/19 09:21:58;;;;;;;22.10;13.22;;;;;;;5.69;67.54;101689.89;1734054;81;21174;-56
2020/12/19 09:24:25;;;;;;;21.55;13.08;;;;;;;5.68;67.51;101696.34;1735084;82;22306;-53
2020/12/19 09:26:55;;;;;;;20.57;13.08;;;;;;;5.68;67.43;101690.94;1721927;83;21169;-54
2020/12/19 09:29:24;;;;;;;20.23;12.50;;;;;;;5.65;67.42;101689.14;1714363;82;21020;-53
2020/12/19 09:31:52;;;;;;;19.73;11.70;;;;;;;5.64;67.47;101689.66;1721989;81;21150;-54
2020/12/19 09:34:20;;;;;;;19.40;11.90;;;;;;;5.65;67.45;101693.19;1721980;83;21202;-55
2020/12/19 09:36:49;;;;;;;21.15;12.50;;;;;;;5.64;67.39;101696.41;1722253;83;21360;-52
2020/12/19 09:39:17;;;;;;;22.27;13.90;;;;;;;5.66;67.33;101688.11;1735114;81;21000;-54
2020/12/19 09:41:45;;;;;;;21.48;13.83;;;;;;;5.67;67.35;101689.77;1735323;81;21123;-53
2020/12/19 09:44:13;;;;;;;22.00;13.18;;;;;;;5.67;67.33;101695.16;1700100;83;21234;-52
2020/12/19 09:46:42;;;;;;;22.27;13.78;;;;;;;5.65;67.61;101686.44;1722286;83;21610;-50
2020/12/19 09:49:09;;;;;;;22.30;13.03;;;;;;;5.65;67.61;101686.44;1714425;81;22506;-53
2020/12/19 09:51:37;;;;;;;22.60;13.28;;;;;;;5.67;67.62;101691.94;1735272;81;21182;-50
2020/12/19 09:54:04;;;;;;;22.73;13.83;;;;;;;5.68;67.44;101688.23;1735211;82;21039;-51
2020/12/19 09:56:38;;;;;;;23.10;12.93;;;;;;;5.69;67.36;101687.20;1721937;83;21090;-52
2020/12/19 09:59:06;;;;;;;23.98;14.25;;;;;;;5.67;67.30;101683.02;1722257;83;21159;-52
2020/12/19 10:01:36;;;;;;;24.25;13.88;;;;;;;5.68;67.29;101683.36;1722472;83;21219;-50
2020/12/19 10:04:04;;;;;;;24.07;14.58;;;;;;;5.66;67.27;101686.23;1722517;83;21020;-50
2020/12/19 10:06:32;;;;;;;24.07;15.55;;;;;;;5.64;67.41;101688.31;1722171;83;20965;-52
2020/12/19 10:09:00;;;;;;;24.82;14.68;;;;;;;5.68;67.41;101690.94;1735474;81;21072;-53
2020/12/19 10:11:28;;;;;;;23.45;13.38;;;;;;;5.69;67.31;101689.89;1722442;83;21088;-53
2020/12/19 10:13:56;;;;;;;24.25;13.72;;;;;;;5.69;67.26;101679.61;1722259;83;21216;-52
2020/12/19 10:16:24;;;;;;;21.48;12.63;;;;;;;5.69;67.22;101683.14;1722451;83;21092;-51
2020/12/19 10:18:51;;;;;;;23.52;13.93;;;;;;;5.66;67.21;101686.23;1735168;81;20929;-53
2020/12/19 10:21:20;;;;;;;23.87;13.95;;;;;;;5.65;67.27;101690.49;1735313;82;22159;-55
2020/12/19 10:23:48;;;;;;;23.67;13.13;;;;;;;5.65;67.23;101685.09;1700214;81;21196;-53
2020/12/19 10:26:16;;;;;;;21.27;12.40;;;;;;;5.64;67.22;101687.48;1751598;81;21377;-54
2020/12/19 10:28:44;;;;;;;22.00;13.25;;;;;;;5.59;67.27;101676.45;1753475;80;21199;-54
2020/12/19 10:31:14;;;;;;;19.23;12.63;;;;;;;5.63;67.38;101675.85;1750716;81;21002;-55
2020/12/19 10:33:42;;;;;;;21.62;12.15;;;;;;;5.68;67.37;101670.69;1747459;81;21168;-55
2020/12/19 10:36:15;;;;;;;17.95;11.43;;;;;;;5.70;67.29;101675.35;1801582;78;21142;-53
2020/12/19 10:38:43;;;;;;;17.73;10.80;;;;;;;5.73;67.12;101670.08;1800251;78;22192;-56
2020/12/19 10:41:13;;;;;;;20.88;10.55;;;;;;;5.77;66.91;101678.59;1801283;78;21613;-53
2020/12/19 10:43:42;;;;;;;16.57;10.78;;;;;;;5.77;66.82;101670.50;1804183;78;21609;-49
2020/12/19 10:46:11;;;;;;;15.05;10.03;;;;;;;5.78;66.89;101667.62;1801749;78;20987;-52
2020/12/19 10:48:39;;;;;;;15.40;9.55;;;;;;;5.81;66.77;101671.77;1803684;78;21637;-52
2020/12/19 10:51:07;;;;;;;16.42;9.43;;;;;;;5.83;66.70;101672.38;1802436;78;21423;-55
2020/12/19 10:53:35;;;;;;;13.15;9.05;;;;;;;5.84;66.64;101672.72;1730218;81;21165;-52
2020/12/19 10:56:03;;;;;;;14.10;8.78;;;;;;;5.82;66.58;101672.08;1813878;78;21112;-50
2020/12/19 10:58:32;;;;;;;13.05;9.13;;;;;;;5.84;66.47;101668.67;1818735;78;20928;-53
2020/12/19 11:01:04;;;;;;;13.22;8.73;;;;;;;5.85;66.53;101665.77;1787569;78;21051;-57
2020/12/19 11:03:46;;;;;;;14.25;9.05;;;;;;;5.88;66.49;101669.91;1819039;78;21435;-52
2020/12/19 11:06:22;;;;;;;12.53;8.60;;;;;;;5.91;66.45;101670.87;1807655;78;21088;-53
2020/12/19 11:08:49;;;;;;;12.47;7.95;;;;;;;5.93;66.43;101662.06;1796759;78;21068;-52
2020/12/19 11:11:20;;;;;;;11.22;8.18;;;;;;;5.95;66.42;101667.59;1818638;78;21071;-49
2020/12/19 11:13:50;;;;;;;13.38;9.10;;;;;;;5.93;66.28;101660.72;1818822;78;21042;-50
2020/12/19 11:16:24;;;;;;;14.43;9.03;;;;;;;5.97;66.18;101659.28;1782318;78;21272;-49
2020/12/19 11:18:54;;;;;;;12.85;8.88;;;;;;;5.97;66.13;101663.34;1804014;78;21002;-54
2020/12/19 11:21:21;;;;;;;14.07;9.58;;;;;;;5.97;66.17;101666.86;1796040;78;21147;-51
2020/12/19 11:23:49;;;;;;;14.55;9.63;;;;;;;5.98;66.18;101663.16;1788588;78;21517;-51
2020/12/19 11:26:21;;;;;;;12.45;9.00;;;;;;;5.98;66.28;101665.86;1798786;78;21160;-49
2020/12/19 11:28:50;;;;;;;12.88;9.35;;;;;;;6.02;66.41;101662.73;1752178;80;21443;-50
2020/12/19 11:31:29;;;;;;;15.35;9.13;;;;;;;6.02;66.41;101662.73;1748715;81;21154;-53